Terminal Aerodrome Forecast
Issued by NWS

Home | Current Version | Previous Version | Text Only | Print | Product List | Glossary On
Versions: 1 2 3 4 5 6 7 8 9 10 11 12 13 14 15 16 17
000
FTUS43 KDLH 211314 AAA
TAFHYR
TAF AMD
KHYR 211314Z 2113/2212 17011KT P6SM SCT035 OVC050
     FM211400 17011KT P6SM -SHRA OVC025
     FM220000 18009KT P6SM SHRA VCTS OVC028CB
     FM220400 19007KT 3SM SHRA VCTS OVC028CB
     FM220700 24006KT P6SM SHRA OVC019
     FM221000 25005KT P6SM SHRA BKN050=

USA.gov is the U.S. government's official web portal to all federal, state and local government web resources and services.